Time;durP1;ratioP1;P1;durP2;ratioP2;P2;SDS_P1;SDS_P2;PMS_P1;PMS_P2;Temp;Humidity;BMP_temperature;BMP_pressure;BME280_temperature;BME280_humidity;BME280_pressure;Samples;Min_cycle;Max_cycle;Signal;HPM_P1;HPM_P2
2022/09/21 00:00:30;;;;;;;1.03;1.00;;;;;;;8.56;100.00;101366.47;5070238;28;20461;-75
2022/09/21 00:02:56;;;;;;;0.70;0.53;;;;;;;8.56;100.00;101363.72;5070349;28;20213;-76
2022/09/21 00:05:22;;;;;;;1.83;1.73;;;;;;;8.49;100.00;101365.91;5073679;28;20653;-74
2022/09/21 00:07:48;;;;;;;0.27;0.27;;;;;;;8.47;100.00;101363.47;5073873;28;20185;-75
2022/09/21 00:10:13;;;;;;;2.03;0.70;;;;;;;8.49;100.00;101374.06;5073920;28;20178;-74
2022/09/21 00:12:39;;;;;;;2.53;0.73;;;;;;;8.48;100.00;101367.81;5073749;28;20181;-74
2022/09/21 00:15:09;;;;;;;1.23;1.00;;;;;;;8.48;100.00;101370.53;5073849;28;20261;-74
2022/09/21 00:17:36;;;;;;;0.57;0.50;;;;;;;8.40;100.00;101364.84;5073201;28;20241;-73
2022/09/21 00:20:04;;;;;;;0.13;0.13;;;;;;;8.42;100.00;101366.19;5073766;28;20186;-74
2022/09/21 00:22:30;;;;;;;0.87;0.87;;;;;;;8.42;100.00;101362.66;5073303;28;20370;-74
2022/09/21 00:24:55;;;;;;;0.40;0.40;;;;;;;8.42;100.00;101370.84;5073640;28;20201;-74
2022/09/21 00:27:21;;;;;;;1.77;0.70;;;;;;;8.41;100.00;101366.47;5073144;28;20227;-74
2022/09/21 00:29:47;;;;;;;0.67;0.67;;;;;;;8.41;100.00;101374.66;5073343;28;20179;-74
2022/09/21 00:32:14;;;;;;;0.60;0.60;;;;;;;8.36;100.00;101370.00;5073170;28;20711;-74
2022/09/21 00:34:40;;;;;;;1.40;1.30;;;;;;;8.33;100.00;101375.97;5073202;28;20680;-74
2022/09/21 00:37:08;;;;;;;0.20;0.20;;;;;;;8.29;100.00;101383.88;5072875;28;20233;-74
2022/09/21 00:39:33;;;;;;;7.40;2.33;;;;;;;8.29;100.00;101372.16;5073182;28;20636;-74
2022/09/21 00:41:59;;;;;;;0.27;0.27;;;;;;;8.34;100.00;101373.00;5073076;28;20253;-75
2022/09/21 00:44:31;;;;;;;4.33;3.10;;;;;;;8.34;100.00;101373.00;5072985;28;20170;-74
2022/09/21 00:47:08;;;;;;;0.40;0.40;;;;;;;8.39;100.00;101369.47;5072790;28;20256;-74
2022/09/21 00:49:34;;;;;;;0.50;0.50;;;;;;;8.33;100.00;101374.06;5073066;28;20210;-73
2022/09/21 00:52:03;;;;;;;1.03;0.93;;;;;;;8.30;100.00;101371.91;5072959;28;20170;-74
2022/09/21 00:54:33;;;;;;;0.93;0.93;;;;;;;8.27;100.00;101369.72;5072860;28;20185;-74
2022/09/21 00:57:00;;;;;;;0.60;0.60;;;;;;;8.29;100.00;101377.63;5072358;28;20214;-74
2022/09/21 00:59:26;;;;;;;0.20;0.20;;;;;;;8.29;100.00;101383.06;5072367;28;20573;-74
2022/09/21 01:01:52;;;;;;;0.63;0.63;;;;;;;8.26;100.00;101383.63;5071304;28;20182;-74
2022/09/21 01:04:18;;;;;;;0.30;0.30;;;;;;;8.26;100.00;101387.16;5072816;28;20175;-74
2022/09/21 01:06:46;;;;;;;6.07;0.60;;;;;;;8.26;100.00;101389.88;5072409;28;20622;-73
2022/09/21 01:09:12;;;;;;;0.37;0.37;;;;;;;8.28;100.00;101389.59;5072482;28;20189;-74
2022/09/21 01:12:02;;;;;;;0.40;0.30;;;;;;;8.21;100.00;101389.84;5072460;28;20261;-74
2022/09/21 01:14:55;;;;;;;0.33;0.33;;;;;;;8.26;100.00;101383.63;5072520;28;20178;-74
2022/09/21 01:17:48;;;;;;;0.10;0.10;;;;;;;8.26;100.00;101384.44;5072047;28;20202;-74
2022/09/21 01:20:38;;;;;;;2.90;1.50;;;;;;;8.26;100.00;101392.59;5070981;28;20175;-74
2022/09/21 01:23:25;;;;;;;0.40;0.40;;;;;;;8.23;100.00;101387.66;5072257;28;20171;-74
2022/09/21 01:26:31;;;;;;;1.60;0.73;;;;;;;8.18;100.00;101395.03;5072253;28;20181;-74
2022/09/21 01:29:12;;;;;;;0.00;0.00;;;;;;;8.19;100.00;101392.03;5070922;28;20186;-74
2022/09/21 01:31:51;;;;;;;0.00;0.00;;;;;;;8.20;100.00;101399.09;5070763;28;20210;-74
2022/09/21 01:34:42;;;;;;;0.03;0.00;;;;;;;8.16;100.00;101398.03;5072118;28;20312;-74
2022/09/21 01:37:24;;;;;;;0.30;0.30;;;;;;;8.10;100.00;101392.84;5071935;28;20673;-75
2022/09/21 01:39:55;;;;;;;1.50;0.73;;;;;;;8.02;100.00;101395.03;5072062;28;20201;-75
2022/09/21 01:42:22;;;;;;;1.33;1.13;;;;;;;8.03;100.00;101402.09;5071915;28;20175;-75
2022/09/21 01:44:48;;;;;;;0.10;0.10;;;;;;;8.05;100.00;101407.28;5071907;28;20548;-74
2022/09/21 01:47:16;;;;;;;0.10;0.10;;;;;;;8.00;100.00;101407.28;5070135;28;20790;-75
2022/09/21 01:49:48;;;;;;;0.73;0.73;;;;;;;8.00;100.00;101402.66;5071727;28;20181;-74
2022/09/21 01:52:22;;;;;;;0.00;0.00;;;;;;;7.98;100.00;101399.38;5071819;28;20175;-73
2022/09/21 01:54:59;;;;;;;6.83;1.37;;;;;;;7.92;100.00;101395.00;5071781;28;20162;-74
2022/09/21 01:57:37;;;;;;;0.40;0.40;;;;;;;7.96;100.00;101393.41;5071674;28;20205;-74
2022/09/21 02:00:05;;;;;;;0.73;0.73;;;;;;;7.98;100.00;101398.56;5071156;28;20178;-74
2022/09/21 02:02:39;;;;;;;0.57;0.57;;;;;;;7.95;100.00;101396.34;5071737;28;20180;-74
2022/09/21 02:05:05;;;;;;;0.50;0.50;;;;;;;7.93;100.00;101395.81;5071324;28;20170;-74
2022/09/21 02:07:34;;;;;;;0.70;0.70;;;;;;;7.94;100.00;101395.53;5071264;28;20638;-74
2022/09/21 02:10:02;;;;;;;0.13;0.13;;;;;;;7.97;100.00;101403.19;5071380;28;20228;-74
2022/09/21 02:12:29;;;;;;;0.63;0.63;;;;;;;7.95;100.00;101401.81;5071328;28;20182;-74
2022/09/21 02:14:54;;;;;;;0.97;0.83;;;;;;;7.91;100.00;101396.09;5071416;28;20213;-74
2022/09/21 02:17:41;;;;;;;1.47;1.43;;;;;;;7.87;100.00;101400.44;5071288;28;20652;-74
2022/09/21 02:20:09;;;;;;;0.50;0.50;;;;;;;7.83;100.00;101398.53;5071335;28;20166;-75
2022/09/21 02:22:47;;;;;;;1.10;0.13;;;;;;;7.83;100.00;101402.09;5071210;28;20637;-74
2022/09/21 02:25:17;;;;;;;0.77;0.53;;;;;;;7.76;100.00;101394.16;5071126;28;20161;-74
2022/09/21 02:27:54;;;;;;;4.17;1.50;;;;;;;7.78;100.00;101396.63;5070607;28;20174;-74
2022/09/21 02:30:22;;;;;;;1.77;1.67;;;;;;;7.78;100.00;101391.16;5071125;28;20565;-74
2022/09/21 02:33:04;;;;;;;1.63;0.93;;;;;;;7.79;100.00;101402.88;5070891;28;20171;-75
2022/09/21 02:35:54;;;;;;;0.00;0.00;;;;;;;7.75;100.00;101391.72;5070865;28;20158;-75
2022/09/21 02:38:34;;;;;;;2.00;1.90;;;;;;;7.68;100.00;101393.91;5071322;28;20170;-74
2022/09/21 02:41:18;;;;;;;20.27;1.03;;;;;;;7.57;100.00;101390.31;5071009;28;20158;-74
2022/09/21 02:43:47;;;;;;;0.50;0.50;;;;;;;7.59;100.00;101398.22;5070881;28;20638;-74
2022/09/21 02:46:30;;;;;;;0.20;0.20;;;;;;;7.61;100.00;101402.28;5070604;28;20181;-74
2022/09/21 02:49:21;;;;;;;0.30;0.30;;;;;;;7.56;100.00;101394.13;5070971;28;20163;-75
2022/09/21 02:51:49;;;;;;;0.00;0.00;;;;;;;7.57;100.00;101397.66;5061218;28;20273;-74
2022/09/21 02:54:18;;;;;;;0.00;0.00;;;;;;;7.57;100.00;101390.31;5070862;28;20534;-74
2022/09/21 02:56:46;;;;;;;0.00;0.00;;;;;;;7.48;100.00;101394.63;5070340;28;20205;-75
2022/09/21 02:59:12;;;;;;;0.00;0.00;;;;;;;7.51;100.00;101398.72;5070432;28;20210;-74
2022/09/21 03:01:39;;;;;;;0.00;0.00;;;;;;;7.00;100.00;101396.63;5070761;28;20475;-74
2022/09/21 03:04:04;;;;;;;0.00;0.00;;;;;;;6.78;100.00;101395.94;5070722;28;20175;-75
2022/09/21 03:06:30;;;;;;;0.00;0.00;;;;;;;7.01;100.00;101400.16;5070685;28;20221;-75
2022/09/21 03:08:57;;;;;;;0.00;0.00;;;;;;;6.90;100.00;101393.84;5070653;28;20181;-75
2022/09/21 03:11:23;;;;;;;0.00;0.00;;;;;;;6.76;100.00;101398.09;5070683;28;20170;-75
2022/09/21 03:13:48;;;;;;;0.00;0.00;;;;;;;6.59;100.00;101405.59;5070562;28;20656;-75
2022/09/21 03:16:13;;;;;;;0.00;0.00;;;;;;;6.57;100.00;101406.69;5070330;28;20244;-76
2022/09/21 03:18:43;;;;;;;0.00;0.00;;;;;;;6.41;100.00;101404.94;5070524;28;20197;-75
2022/09/21 03:21:08;;;;;;;0.00;0.00;;;;;;;6.64;100.00;101406.44;5070513;28;20167;-75
2022/09/21 03:23:34;;;;;;;0.00;0.00;;;;;;;6.86;100.00;101409.03;5070474;28;20221;-76
2022/09/21 03:25:59;;;;;;;0.57;0.57;;;;;;;6.93;100.00;101414.22;5070244;28;20224;-76
2022/09/21 03:28:24;;;;;;;0.00;0.00;;;;;;;6.91;100.00;101411.78;5070581;28;20173;-75
2022/09/21 03:30:50;;;;;;;0.00;0.00;;;;;;;6.80;100.00;101416.34;5069128;28;20247;-75
2022/09/21 03:33:18;;;;;;;0.00;0.00;;;;;;;6.77;100.00;101413.31;5070422;28;20532;-75
2022/09/21 03:35:43;;;;;;;0.40;0.40;;;;;;;6.78;100.00;101417.66;5070069;28;20232;-75
2022/09/21 03:38:09;;;;;;;0.00;0.00;;;;;;;6.73;100.00;101417.66;5071158;28;20178;-75
2022/09/21 03:40:34;;;;;;;0.10;0.10;;;;;;;6.71;100.00;101415.19;5074483;28;20183;-75
2022/09/21 03:43:00;;;;;;;0.00;0.00;;;;;;;6.68;100.00;101420.34;5074398;28;20174;-75
2022/09/21 03:45:26;;;;;;;0.00;0.00;;;;;;;6.71;100.00;101426.06;5074098;28;20182;-75
2022/09/21 03:47:55;;;;;;;0.00;0.00;;;;;;;6.66;100.00;101425.22;5073960;28;20177;-75
2022/09/21 03:50:21;;;;;;;0.00;0.00;;;;;;;6.65;100.00;101424.38;5074051;28;20642;-75
2022/09/21 03:52:46;;;;;;;0.00;0.00;;;;;;;6.61;100.00;101431.41;5074137;28;20263;-76
2022/09/21 03:55:11;;;;;;;0.00;0.00;;;;;;;6.30;100.00;101430.34;5073795;28;20225;-76
2022/09/21 03:57:37;;;;;;;0.00;0.00;;;;;;;6.38;100.00;101429.88;5074037;28;20665;-77
2022/09/21 04:00:05;;;;;;;0.00;0.00;;;;;;;6.43;100.00;101435.34;5073369;28;20186;-76
2022/09/21 04:02:31;;;;;;;0.00;0.00;;;;;;;6.49;100.00;101426.16;5074027;28;20175;-75
2022/09/21 04:04:56;;;;;;;0.00;0.00;;;;;;;6.32;100.00;101430.91;5073765;28;20266;-76
2022/09/21 04:07:22;;;;;;;0.00;0.00;;;;;;;6.30;100.00;101429.53;5073557;28;20185;-76
2022/09/21 04:09:47;;;;;;;0.00;0.00;;;;;;;6.41;100.00;101434.78;5072268;28;20178;-75
2022/09/21 04:12:13;;;;;;;0.00;0.00;;;;;;;6.25;100.00;101430.31;5073550;28;20232;-77
2022/09/21 04:14:38;;;;;;;0.00;0.00;;;;;;;5.90;100.00;101423.47;5072477;28;20185;-76
2022/09/21 04:17:04;;;;;;;0.00;0.00;;;;;;;5.65;100.00;101424.00;5073611;28;20296;-77
2022/09/21 04:19:29;;;;;;;0.00;0.00;;;;;;;5.60;100.00;101425.81;5073882;28;20175;-75
2022/09/21 04:21:55;;;;;;;0.00;0.00;;;;;;;5.56;100.00;101424.69;5072539;28;20522;-75
2022/09/21 04:24:20;;;;;;;0.00;0.00;;;;;;;5.43;100.00;101430.50;5074131;28;20213;-76
2022/09/21 04:26:46;;;;;;;0.00;0.00;;;;;;;5.38;100.00;101431.28;5073528;28;20190;-76
2022/09/21 04:29:12;;;;;;;0.00;0.00;;;;;;;5.18;100.00;101434.53;5073763;28;20170;-76
2022/09/21 04:31:38;;;;;;;0.30;0.30;;;;;;;5.07;100.00;101432.78;5074464;28;20210;-75
2022/09/21 04:34:03;;;;;;;0.00;0.00;;;;;;;5.07;100.00;101435.47;5074331;28;20255;-76
2022/09/21 04:36:31;;;;;;;0.00;0.00;;;;;;;5.00;100.00;101430.22;5074072;28;20199;-75
2022/09/21 04:38:57;;;;;;;0.00;0.00;;;;;;;5.10;100.00;101432.25;5073822;28;20182;-76
2022/09/21 04:41:22;;;;;;;0.00;0.00;;;;;;;5.00;100.00;101432.94;5075425;28;20215;-76
2022/09/21 04:43:48;;;;;;;1.30;1.30;;;;;;;4.95;100.00;101432.06;5073287;28;20646;-76
2022/09/21 04:46:15;;;;;;;0.00;0.00;;;;;;;5.00;100.00;101430.22;5074506;28;20174;-76
2022/09/21 04:48:41;;;;;;;0.00;0.00;;;;;;;5.18;100.00;101428.28;5075900;28;20170;-76
2022/09/21 04:51:08;;;;;;;0.00;0.00;;;;;;;5.08;100.00;101437.13;5076088;28;20238;-76
2022/09/21 04:53:35;;;;;;;0.00;0.00;;;;;;;5.26;100.00;101427.88;5080729;28;20171;-76
2022/09/21 04:56:02;;;;;;;0.00;0.00;;;;;;;4.94;100.00;101435.84;5075914;28;20701;-76
2022/09/21 04:58:28;;;;;;;0.00;0.00;;;;;;;4.72;100.00;101430.38;5074060;28;20182;-76
2022/09/21 05:00:56;;;;;;;0.00;0.00;;;;;;;4.68;100.00;101442.75;5073596;28;20179;-76
2022/09/21 05:03:23;;;;;;;0.00;0.00;;;;;;;4.71;100.00;101448.50;5073496;28;20175;-75
2022/09/21 05:05:50;;;;;;;0.00;0.00;;;;;;;4.82;100.00;101445.94;5072901;28;20170;-76
2022/09/21 05:08:16;;;;;;;0.00;0.00;;;;;;;4.96;100.00;101450.75;5073024;28;20174;-76
2022/09/21 05:10:42;;;;;;;0.00;0.00;;;;;;;5.13;100.00;101449.91;5071745;28;20171;-76
2022/09/21 05:13:08;;;;;;;0.00;0.00;;;;;;;5.35;100.00;101448.84;5072726;28;20634;-77
2022/09/21 05:15:38;;;;;;;0.00;0.00;;;;;;;5.43;100.00;101452.19;5072367;28;20182;-75
2022/09/21 05:18:04;;;;;;;1.60;1.60;;;;;;;5.39;100.00;101460.00;5072208;28;20205;-75
2022/09/21 05:20:29;;;;;;;0.00;0.00;;;;;;;5.45;100.00;101471.72;5072676;28;20171;-74
2022/09/21 05:22:55;;;;;;;0.00;0.00;;;;;;;5.45;100.00;101464.41;5072074;28;20662;-78
2022/09/21 05:25:20;;;;;;;0.00;0.00;;;;;;;5.49;100.00;101468.25;5070673;28;20259;-78
2022/09/21 05:27:45;;;;;;;0.30;0.30;;;;;;;5.54;100.00;101470.22;5071941;28;20181;-78
2022/09/21 05:30:11;;;;;;;0.00;0.00;;;;;;;5.60;100.00;101480.03;5072050;28;20181;-78
2022/09/21 05:32:44;;;;;;;0.00;0.00;;;;;;;5.53;100.00;101465.88;5069414;28;20189;-77
2022/09/21 05:35:28;;;;;;;0.00;0.00;;;;;;;5.62;100.00;101475.19;5070094;28;20216;-77
2022/09/21 05:38:00;;;;;;;0.00;0.00;;;;;;;5.52;100.00;101469.66;5071975;28;20293;-76
2022/09/21 05:40:26;;;;;;;0.00;0.00;;;;;;;5.45;100.00;101474.44;5072278;28;20188;-75
2022/09/21 05:42:51;;;;;;;0.00;0.00;;;;;;;5.58;100.00;101471.34;5071837;28;20261;-76
2022/09/21 05:45:17;;;;;;;0.53;0.53;;;;;;;5.70;100.00;101484.78;5071896;28;20174;-77
2022/09/21 05:48:05;;;;;;;0.00;0.00;;;;;;;5.74;100.00;101481.28;5071523;28;20175;-76
2022/09/21 05:50:37;;;;;;;0.00;0.00;;;;;;;5.42;100.00;101477.66;5071757;28;20249;-77
2022/09/21 05:53:23;;;;;;;0.20;0.20;;;;;;;5.36;100.00;101484.91;5071543;28;20171;-78
2022/09/21 05:55:55;;;;;;;0.00;0.00;;;;;;;5.43;100.00;101480.09;5051008;28;20290;-77
2022/09/21 05:58:39;;;;;;;0.00;0.00;;;;;;;5.34;100.00;101479.72;5051524;28;20175;-77
2022/09/21 06:01:29;;;;;;;0.00;0.00;;;;;;;5.43;100.00;101487.41;5050694;28;20177;-78
2022/09/21 06:03:55;;;;;;;0.00;0.00;;;;;;;5.40;100.00;101479.78;5051910;28;20241;-78
2022/09/21 06:06:21;;;;;;;0.00;0.00;;;;;;;5.36;100.00;101485.72;5051170;28;20258;-78
2022/09/21 06:08:46;;;;;;;0.00;0.00;;;;;;;5.35;100.00;101494.91;5051327;28;20185;-78
2022/09/21 06:11:12;;;;;;;0.00;0.00;;;;;;;5.38;100.00;101499.84;5051479;28;20178;-78
2022/09/21 06:13:39;;;;;;;0.00;0.00;;;;;;;5.54;100.00;101497.31;5051340;28;20248;-78
2022/09/21 06:16:05;;;;;;;0.17;0.17;;;;;;;5.72;100.00;101510.56;5062428;28;20197;-79
2022/09/21 06:18:31;;;;;;;0.00;0.00;;;;;;;5.83;100.00;101506.06;5069638;28;20175;-77
2022/09/21 06:20:56;;;;;;;19.47;18.43;;;;;;;5.91;100.00;101509.19;5070925;28;20194;-77
2022/09/21 06:23:21;;;;;;;0.00;0.00;;;;;;;5.92;100.00;101510.81;5071177;28;20171;-78
2022/09/21 06:25:51;;;;;;;0.00;0.00;;;;;;;6.04;100.00;101516.09;5071029;28;20182;-78
2022/09/21 06:28:17;;;;;;;0.00;0.00;;;;;;;6.09;100.00;101518.06;5071100;28;20171;-77
2022/09/21 06:30:43;;;;;;;0.00;0.00;;;;;;;6.15;100.00;101519.75;5069496;28;20171;-76
2022/09/21 06:33:09;;;;;;;0.00;0.00;;;;;;;6.23;100.00;101519.31;5069867;28;20173;-76
2022/09/21 06:35:35;;;;;;;0.00;0.00;;;;;;;6.23;100.00;101525.56;5070864;28;20178;-76
2022/09/21 06:38:03;;;;;;;0.10;0.10;;;;;;;6.28;100.00;101530.19;5070967;28;20175;-76
2022/09/21 06:40:30;;;;;;;0.37;0.37;;;;;;;6.29;100.00;101522.88;5070910;28;20167;-76
2022/09/21 06:43:00;;;;;;;0.50;0.50;;;;;;;6.34;100.00;101520.19;5070866;28;20174;-76
2022/09/21 06:45:27;;;;;;;0.07;0.07;;;;;;;6.38;100.00;101524.06;5070705;28;20253;-76
2022/09/21 06:47:52;;;;;;;0.73;0.73;;;;;;;6.43;100.00;101522.22;5070503;28;20410;-76
2022/09/21 06:50:18;;;;;;;0.00;0.00;;;;;;;6.52;100.00;101520.69;5069616;28;20257;-76
2022/09/21 06:52:44;;;;;;;0.10;0.10;;;;;;;6.60;100.00;101526.69;5070732;28;20186;-76
2022/09/21 06:55:09;;;;;;;0.10;0.10;;;;;;;6.69;100.00;101527.88;5070489;28;20171;-75
2022/09/21 06:57:38;;;;;;;0.00;0.00;;;;;;;6.79;100.00;101530.66;5070843;28;20255;-74
2022/09/21 07:00:06;;;;;;;0.00;0.00;;;;;;;6.94;100.00;101535.38;5069197;28;20269;-75
2022/09/21 07:02:31;;;;;;;0.00;0.00;;;;;;;7.04;100.00;101533.56;5070915;28;20173;-74
2022/09/21 07:04:57;;;;;;;0.10;0.10;;;;;;;7.15;100.00;101535.28;5070652;28;20171;-75
2022/09/21 07:07:23;;;;;;;0.00;0.00;;;;;;;7.30;100.00;101529.13;5070610;28;20171;-76
2022/09/21 07:09:48;;;;;;;0.00;0.00;;;;;;;7.41;100.00;101530.84;5070950;28;20254;-76
2022/09/21 07:12:15;;;;;;;0.00;0.00;;;;;;;7.52;100.00;101528.16;5071467;28;20253;-75
2022/09/21 07:14:40;;;;;;;0.00;0.00;;;;;;;7.63;100.00;101533.38;5073132;28;20190;-75
2022/09/21 07:17:05;;;;;;;0.00;0.00;;;;;;;7.76;100.00;101534.78;5074087;28;20229;-74
2022/09/21 07:19:31;;;;;;;0.00;0.00;;;;;;;7.90;100.00;101532.41;5074362;28;20200;-74
2022/09/21 07:21:56;;;;;;;0.17;0.17;;;;;;;8.08;100.00;101531.91;5073041;28;20178;-74
2022/09/21 07:24:21;;;;;;;1.37;1.30;;;;;;;8.24;100.00;101532.78;5074287;28;20183;-74
2022/09/21 07:26:48;;;;;;;0.90;0.90;;;;;;;8.37;100.00;101537.72;5070068;28;20263;-74
2022/09/21 07:29:13;;;;;;;0.63;0.63;;;;;;;8.49;100.00;101549.19;5073885;28;20442;-75
2022/09/21 07:31:41;;;;;;;0.00;0.00;;;;;;;8.61;100.00;101532.59;5072621;28;20713;-74
2022/09/21 07:34:06;;;;;;;0.00;0.00;;;;;;;8.80;100.00;101544.59;5074108;28;20170;-74
2022/09/21 07:36:32;;;;;;;0.10;0.10;;;;;;;8.95;100.00;101552.75;5073484;28;20645;-74
2022/09/21 07:38:57;;;;;;;0.00;0.00;;;;;;;9.10;100.00;101556.56;5073874;28;20184;-74
2022/09/21 07:41:22;;;;;;;0.00;0.00;;;;;;;9.22;100.00;101549.75;5073812;28;20519;-74
2022/09/21 07:43:48;;;;;;;0.50;0.37;;;;;;;9.30;100.00;101553.00;5073229;28;20458;-74
2022/09/21 07:46:14;;;;;;;0.47;0.47;;;;;;;9.38;100.00;101555.97;5072076;28;20179;-74
2022/09/21 07:48:40;;;;;;;2.47;0.73;;;;;;;9.45;100.00;101553.78;5073737;28;20170;-74
2022/09/21 07:51:08;;;;;;;0.10;0.10;;;;;;;9.55;100.00;101558.41;5071225;28;20696;-74
2022/09/21 07:53:34;;;;;;;0.50;0.50;;;;;;;9.54;100.00;101560.31;5071834;28;20190;-74
2022/09/21 07:56:05;;;;;;;0.20;0.20;;;;;;;9.57;100.00;101552.69;5072831;28;20216;-74
2022/09/21 08:01:14;;;;;;;0.20;0.20;;;;;;;9.66;100.00;101557.28;5073489;28;20173;-74
2022/09/21 08:03:40;;;;;;;0.20;0.20;;;;;;;9.73;100.00;101562.44;5073284;28;20171;-74
2022/09/21 08:06:06;;;;;;;0.40;0.40;;;;;;;9.79;100.00;101562.16;5073135;28;20534;-74
2022/09/21 08:08:31;;;;;;;0.33;0.33;;;;;;;9.81;100.00;101554.50;5072075;28;20309;-74
2022/09/21 08:11:02;;;;;;;0.20;0.20;;;;;;;9.90;100.00;101565.66;5073275;28;20175;-74
2022/09/21 08:13:28;;;;;;;0.03;0.03;;;;;;;10.00;99.88;101562.91;5073200;28;20181;-74
2022/09/21 08:16:01;;;;;;;0.50;0.50;;;;;;;10.10;100.00;101562.00;5072773;28;20170;-74
2022/09/21 08:18:27;;;;;;;0.20;0.20;;;;;;;10.14;100.00;101569.38;5073276;28;20441;-74
2022/09/21 08:20:59;;;;;;;0.63;0.63;;;;;;;10.24;100.00;101565.78;5072876;28;20178;-74
2022/09/21 08:23:27;;;;;;;0.00;0.00;;;;;;;10.29;100.00;101564.97;5072714;28;20201;-74
2022/09/21 08:26:05;;;;;;;0.00;0.00;;;;;;;10.25;100.00;101559.22;5072530;28;20170;-76
2022/09/21 08:28:30;;;;;;;0.70;0.70;;;;;;;10.34;100.00;101560.28;5073041;28;20178;-77
2022/09/21 08:30:59;;;;;;;1.70;1.60;;;;;;;10.44;100.00;101562.16;5073007;28;20209;-75
2022/09/21 08:33:26;;;;;;;0.13;0.13;;;;;;;10.47;100.00;101563.50;5072669;28;20194;-76
2022/09/21 08:35:57;;;;;;;0.10;0.10;;;;;;;10.52;100.00;101556.06;5072631;28;20271;-76
2022/09/21 08:38:22;;;;;;;0.63;0.30;;;;;;;10.58;100.00;101560.41;5072873;28;20178;-76
2022/09/21 08:40:50;;;;;;;0.63;0.63;;;;;;;10.65;100.00;101560.91;5072699;28;20228;-76
2022/09/21 08:43:38;;;;;;;0.83;0.83;;;;;;;10.69;100.00;101561.94;5072641;28;20220;-76
2022/09/21 08:46:12;;;;;;;0.23;0.23;;;;;;;10.73;100.00;101560.31;5072351;28;20719;-77
2022/09/21 08:48:46;;;;;;;0.67;0.67;;;;;;;10.80;100.00;101561.88;5072786;28;20240;-76
2022/09/21 08:51:21;;;;;;;1.50;0.80;;;;;;;10.71;100.00;101558.97;5072575;28;20629;-76
2022/09/21 08:53:49;;;;;;;0.00;0.00;;;;;;;10.73;99.81;101564.94;5072543;28;20300;-76
2022/09/21 08:56:15;;;;;;;0.50;0.30;;;;;;;10.83;98.65;101567.59;5071900;28;20236;-75
2022/09/21 08:58:42;;;;;;;0.47;0.40;;;;;;;10.89;98.34;101568.38;5071011;28;20527;-76
2022/09/21 09:01:23;;;;;;;0.00;0.00;;;;;;;10.90;97.01;101562.63;5072290;28;20182;-75
2022/09/21 09:04:15;;;;;;;0.47;0.47;;;;;;;10.93;97.12;101562.03;5072189;28;20174;-76
2022/09/21 09:07:05;;;;;;;0.30;0.30;;;;;;;11.00;97.50;101564.47;5072017;28;20181;-76
2022/09/21 09:09:52;;;;;;;7.97;0.77;;;;;;;11.07;97.27;101567.69;5072201;28;20182;-76
2022/09/21 09:12:33;;;;;;;0.57;0.57;;;;;;;11.20;97.46;101568.94;5072160;28;20174;-76
2022/09/21 09:15:04;;;;;;;0.20;0.20;;;;;;;11.27;96.14;101572.94;5070776;28;20653;-75
2022/09/21 09:17:38;;;;;;;0.03;0.03;;;;;;;11.27;95.99;101577.59;5071809;28;20210;-76
2022/09/21 09:20:15;;;;;;;0.00;0.00;;;;;;;11.33;94.61;101574.53;5071943;28;20183;-76
2022/09/21 09:22:46;;;;;;;0.00;0.00;;;;;;;11.45;94.65;101574.16;5072056;28;20551;-77
2022/09/21 09:25:21;;;;;;;0.73;0.73;;;;;;;11.56;93.74;101572.09;5071576;28;20167;-76
2022/09/21 09:27:52;;;;;;;0.40;0.40;;;;;;;11.59;93.54;101577.84;5071449;28;20177;-76
2022/09/21 09:30:29;;;;;;;0.60;0.60;;;;;;;11.60;91.61;101574.00;5071759;28;20181;-76
2022/09/21 09:33:04;;;;;;;0.00;0.00;;;;;;;11.63;91.35;101575.34;5071769;28;20638;-76
2022/09/21 09:35:36;;;;;;;0.10;0.10;;;;;;;11.71;91.51;101577.41;5069278;28;20262;-76
2022/09/21 09:38:13;;;;;;;0.00;0.00;;;;;;;11.86;91.37;101581.94;5071338;28;20289;-78
2022/09/21 09:40:48;;;;;;;5.27;0.97;;;;;;;11.84;90.31;101574.00;5071436;28;20170;-76
2022/09/21 09:43:34;;;;;;;0.00;0.00;;;;;;;11.94;90.43;101580.50;5071687;28;20182;-76
2022/09/21 09:46:12;;;;;;;2.70;0.57;;;;;;;12.12;90.47;101576.97;5029520;28;20190;-76
2022/09/21 09:49:07;;;;;;;0.03;0.03;;;;;;;12.21;87.21;101583.44;5070188;28;20273;-75
2022/09/21 09:51:35;;;;;;;0.10;0.10;;;;;;;12.36;86.27;101579.66;5069911;28;20174;-77
2022/09/21 09:54:02;;;;;;;1.37;1.27;;;;;;;12.40;85.69;101584.25;5071300;28;20220;-76
2022/09/21 09:56:30;;;;;;;0.00;0.00;;;;;;;12.34;84.17;101579.97;5069454;28;20218;-77
2022/09/21 09:58:59;;;;;;;0.00;0.00;;;;;;;12.42;82.59;101570.25;5071239;28;20232;-75
2022/09/21 10:01:43;;;;;;;0.27;0.27;;;;;;;12.64;83.75;101580.63;5071059;28;20593;-76
2022/09/21 10:04:13;;;;;;;0.40;0.40;;;;;;;12.67;80.51;101586.31;5071066;28;20245;-75
2022/09/21 10:06:40;;;;;;;0.00;0.00;;;;;;;12.71;80.50;101579.13;5070766;28;20270;-76
2022/09/21 10:09:28;;;;;;;0.73;0.73;;;;;;;12.86;80.76;101571.78;5071058;28;20170;-76
2022/09/21 10:12:00;;;;;;;0.00;0.00;;;;;;;12.76;80.33;101578.25;5069441;28;20792;-76
2022/09/21 10:14:31;;;;;;;0.53;0.53;;;;;;;12.81;80.25;101580.91;5070856;28;20178;-74
2022/09/21 10:17:04;;;;;;;0.00;0.00;;;;;;;12.93;79.45;101573.03;5070505;28;20230;-74
2022/09/21 10:19:30;;;;;;;0.00;0.00;;;;;;;13.17;79.46;101567.44;5070958;28;20182;-75
2022/09/21 10:22:01;;;;;;;0.00;0.00;;;;;;;13.25;78.16;101561.25;5070797;28;20175;-76
2022/09/21 10:24:35;;;;;;;0.00;0.00;;;;;;;13.16;78.43;101567.69;5069344;28;20171;-76
2022/09/21 10:27:10;;;;;;;0.33;0.23;;;;;;;13.50;79.12;101570.16;5070408;28;20522;-75
2022/09/21 10:29:42;;;;;;;0.67;0.67;;;;;;;13.52;77.26;101573.41;5070706;28;20170;-75
2022/09/21 10:32:11;;;;;;;0.20;0.20;;;;;;;13.55;77.13;101565.38;5070754;28;20167;-76
2022/09/21 10:34:37;;;;;;;0.00;0.00;;;;;;;13.76;77.44;101567.75;5070615;28;20644;-76
2022/09/21 10:37:27;;;;;;;0.00;0.00;;;;;;;13.77;77.05;101572.13;5070190;28;20411;-75
2022/09/21 10:39:53;;;;;;;0.10;0.10;;;;;;;13.82;75.77;101561.81;5070644;28;20201;-77
2022/09/21 10:42:18;;;;;;;0.67;0.67;;;;;;;13.82;72.23;101569.25;5069233;28;20166;-78
2022/09/21 10:44:51;;;;;;;0.10;0.10;;;;;;;13.84;71.21;101559.59;5070392;28;20653;-76
2022/09/21 10:47:19;;;;;;;0.00;0.00;;;;;;;13.90;71.14;101560.31;5069966;28;20194;-74
2022/09/21 10:49:56;;;;;;;0.00;0.00;;;;;;;13.98;71.57;101562.31;5070494;28;20170;-75
2022/09/21 10:52:37;;;;;;;0.00;0.00;;;;;;;14.01;70.38;101564.44;5069127;28;20166;-74
2022/09/21 10:55:03;;;;;;;4.50;0.93;;;;;;;14.13;69.84;101562.00;5069334;28;20571;-74
2022/09/21 10:57:31;;;;;;;0.00;0.00;;;;;;;13.93;68.46;101552.25;5070334;28;20754;-74
2022/09/21 10:59:58;;;;;;;0.00;0.00;;;;;;;13.63;66.20;101552.88;5070567;28;20404;-73
2022/09/21 11:02:30;;;;;;;0.37;0.37;;;;;;;14.09;70.77;101550.00;5070760;28;20193;-74
2022/09/21 11:05:06;;;;;;;0.00;0.00;;;;;;;14.32;71.88;101552.78;5068587;28;20178;-73
2022/09/21 11:07:38;;;;;;;0.00;0.00;;;;;;;14.27;70.71;101548.22;5070661;28;20189;-74
2022/09/21 11:10:22;;;;;;;0.00;0.00;;;;;;;14.31;69.55;101546.47;5070677;28;20273;-74
2022/09/21 11:13:08;;;;;;;0.00;0.00;;;;;;;14.54;69.45;101539.94;5069465;28;20528;-73
2022/09/21 11:15:43;;;;;;;0.00;0.00;;;;;;;14.60;67.32;101551.63;5070459;28;20225;-72
2022/09/21 11:18:34;;;;;;;0.93;0.93;;;;;;;14.69;63.43;101549.75;5070248;28;20176;-74
2022/09/21 11:21:24;;;;;;;0.00;0.00;;;;;;;14.75;65.18;101551.25;5060709;28;20194;-73
2022/09/21 11:23:59;;;;;;;0.10;0.10;;;;;;;14.80;66.80;101550.34;5069106;28;20178;-72
2022/09/21 11:26:31;;;;;;;0.00;0.00;;;;;;;14.80;65.97;101550.34;5070328;28;20241;-73
2022/09/21 11:29:23;;;;;;;0.00;0.00;;;;;;;14.78;65.13;101547.91;5070456;28;20328;-74
2022/09/21 11:32:06;;;;;;;0.00;0.00;;;;;;;14.61;65.42;101545.03;5070562;28;20266;-74
2022/09/21 11:34:49;;;;;;;0.00;0.00;;;;;;;14.98;67.74;101537.50;5070809;28;20183;-73
2022/09/21 11:37:33;;;;;;;0.10;0.10;;;;;;;14.57;65.08;101542.06;5070440;28;20202;-73
2022/09/21 11:40:20;;;;;;;2.70;0.87;;;;;;;14.77;65.28;101538.03;5071323;28;20265;-72
2022/09/21 11:42:51;;;;;;;0.03;0.03;;;;;;;15.04;65.05;101539.78;5077106;28;20186;-74